sensor_id;sensor_type;location;lat;lon;timestamp;P1;durP1;ratioP1;P2;durP2;ratioP2
29906;SDS011;16776;50.958;10.994;2022-11-23T00:01:42;3.13;;;0.70;;
29906;SDS011;16776;50.958;10.994;2022-11-23T00:04:09;1.80;;;0.63;;
29906;SDS011;16776;50.958;10.994;2022-11-23T00:06:38;2.30;;;0.90;;
29906;SDS011;16776;50.958;10.994;2022-11-23T00:09:05;2.92;;;1.40;;
29906;SDS011;16776;50.958;10.994;2022-11-23T00:11:33;0.68;;;0.45;;
29906;SDS011;16776;50.958;10.994;2022-11-23T00:14:04;1.23;;;0.60;;
29906;SDS011;16776;50.958;10.994;2022-11-23T00:16:31;0.60;;;0.60;;
29906;SDS011;16776;50.958;10.994;2022-11-23T00:19:01;1.08;;;0.60;;
29906;SDS011;16776;50.958;10.994;2022-11-23T00:21:28;1.45;;;0.80;;
29906;SDS011;16776;50.958;10.994;2022-11-23T00:23:57;1.02;;;0.50;;
29906;SDS011;16776;50.958;10.994;2022-11-23T00:26:23;1.27;;;0.60;;
29906;SDS011;16776;50.958;10.994;2022-11-23T00:28:50;1.42;;;0.70;;
29906;SDS011;16776;50.958;10.994;2022-11-23T00:31:23;1.38;;;0.70;;
29906;SDS011;16776;50.958;10.994;2022-11-23T00:33:50;0.75;;;0.75;;
29906;SDS011;16776;50.958;10.994;2022-11-23T00:36:17;1.27;;;0.57;;
29906;SDS011;16776;50.958;10.994;2022-11-23T00:38:45;1.85;;;0.90;;
29906;SDS011;16776;50.958;10.994;2022-11-23T00:41:13;1.85;;;0.93;;
29906;SDS011;16776;50.958;10.994;2022-11-23T00:43:41;1.10;;;0.93;;
29906;SDS011;16776;50.958;10.994;2022-11-23T00:46:09;2.13;;;0.95;;
29906;SDS011;16776;50.958;10.994;2022-11-23T00:48:40;1.70;;;0.82;;
29906;SDS011;16776;50.958;10.994;2022-11-23T00:51:08;2.92;;;1.20;;
29906;SDS011;16776;50.958;10.994;2022-11-23T00:53:36;1.88;;;1.00;;
29906;SDS011;16776;50.958;10.994;2022-11-23T00:56:03;2.45;;;0.90;;
29906;SDS011;16776;50.958;10.994;2022-11-23T00:58:30;1.27;;;0.77;;
29906;SDS011;16776;50.958;10.994;2022-11-23T01:01:01;0.60;;;0.60;;
29906;SDS011;16776;50.958;10.994;2022-11-23T01:03:29;0.70;;;0.67;;
29906;SDS011;16776;50.958;10.994;2022-11-23T01:06:01;0.90;;;0.50;;
29906;SDS011;16776;50.958;10.994;2022-11-23T01:08:29;1.85;;;0.50;;
29906;SDS011;16776;50.958;10.994;2022-11-23T01:10:59;0.50;;;0.50;;
29906;SDS011;16776;50.958;10.994;2022-11-23T01:13:28;0.90;;;0.73;;
29906;SDS011;16776;50.958;10.994;2022-11-23T01:15:54;1.48;;;0.68;;
29906;SDS011;16776;50.958;10.994;2022-11-23T01:18:21;0.82;;;0.60;;
29906;SDS011;16776;50.958;10.994;2022-11-23T01:20:48;1.30;;;0.70;;
29906;SDS011;16776;50.958;10.994;2022-11-23T01:23:16;1.10;;;0.70;;
29906;SDS011;16776;50.958;10.994;2022-11-23T01:25:42;1.25;;;0.80;;
29906;SDS011;16776;50.958;10.994;2022-11-23T01:28:09;1.42;;;0.60;;
29906;SDS011;16776;50.958;10.994;2022-11-23T01:30:36;1.05;;;0.95;;
29906;SDS011;16776;50.958;10.994;2022-11-23T01:33:03;2.38;;;0.85;;
29906;SDS011;16776;50.958;10.994;2022-11-23T01:35:30;2.35;;;1.27;;
29906;SDS011;16776;50.958;10.994;2022-11-23T01:37:56;2.03;;;1.10;;
29906;SDS011;16776;50.958;10.994;2022-11-23T01:40:24;0.93;;;0.70;;
29906;SDS011;16776;50.958;10.994;2022-11-23T01:42:52;0.57;;;0.57;;
29906;SDS011;16776;50.958;10.994;2022-11-23T01:45:31;0.75;;;0.75;;
29906;SDS011;16776;50.958;10.994;2022-11-23T01:48:09;1.90;;;0.70;;
29906;SDS011;16776;50.958;10.994;2022-11-23T01:50:42;1.13;;;0.68;;
29906;SDS011;16776;50.958;10.994;2022-11-23T01:53:14;1.15;;;0.68;;
29906;SDS011;16776;50.958;10.994;2022-11-23T01:55:43;2.30;;;1.00;;
29906;SDS011;16776;50.958;10.994;2022-11-23T01:58:11;2.72;;;0.77;;
29906;SDS011;16776;50.958;10.994;2022-11-23T02:00:39;1.77;;;0.70;;
29906;SDS011;16776;50.958;10.994;2022-11-23T02:03:09;2.03;;;0.63;;
29906;SDS011;16776;50.958;10.994;2022-11-23T02:05:49;1.45;;;0.63;;
29906;SDS011;16776;50.958;10.994;2022-11-23T02:08:23;2.20;;;1.00;;
29906;SDS011;16776;50.958;10.994;2022-11-23T02:10:52;1.15;;;0.57;;
29906;SDS011;16776;50.958;10.994;2022-11-23T02:13:19;3.20;;;0.75;;
29906;SDS011;16776;50.958;10.994;2022-11-23T02:15:47;1.67;;;0.50;;
29906;SDS011;16776;50.958;10.994;2022-11-23T02:18:15;0.35;;;0.35;;
29906;SDS011;16776;50.958;10.994;2022-11-23T02:20:44;0.93;;;0.50;;
29906;SDS011;16776;50.958;10.994;2022-11-23T02:23:14;2.47;;;0.65;;
29906;SDS011;16776;50.958;10.994;2022-11-23T02:26:04;0.75;;;0.50;;
29906;SDS011;16776;50.958;10.994;2022-11-23T02:28:35;1.63;;;0.50;;
29906;SDS011;16776;50.958;10.994;2022-11-23T02:31:05;0.80;;;0.47;;
29906;SDS011;16776;50.958;10.994;2022-11-23T02:33:36;1.20;;;0.80;;
29906;SDS011;16776;50.958;10.994;2022-11-23T02:38:54;2.75;;;0.60;;
29906;SDS011;16776;50.958;10.994;2022-11-23T02:41:23;1.15;;;0.70;;
29906;SDS011;16776;50.958;10.994;2022-11-23T02:43:50;0.90;;;0.30;;
29906;SDS011;16776;50.958;10.994;2022-11-23T02:46:21;0.90;;;0.50;;
29906;SDS011;16776;50.958;10.994;2022-11-23T02:48:48;0.80;;;0.50;;
29906;SDS011;16776;50.958;10.994;2022-11-23T02:51:14;0.95;;;0.60;;
29906;SDS011;16776;50.958;10.994;2022-11-23T02:53:43;0.70;;;0.70;;
29906;SDS011;16776;50.958;10.994;2022-11-23T02:56:09;2.85;;;0.70;;
29906;SDS011;16776;50.958;10.994;2022-11-23T02:58:37;0.68;;;0.50;;
29906;SDS011;16776;50.958;10.994;2022-11-23T03:01:04;1.10;;;0.60;;
29906;SDS011;16776;50.958;10.994;2022-11-23T03:03:33;0.80;;;0.50;;
29906;SDS011;16776;50.958;10.994;2022-11-23T03:06:00;1.45;;;0.40;;
29906;SDS011;16776;50.958;10.994;2022-11-23T03:08:26;1.45;;;0.50;;
29906;SDS011;16776;50.958;10.994;2022-11-23T03:10:53;2.15;;;0.70;;
29906;SDS011;16776;50.958;10.994;2022-11-23T03:13:21;2.42;;;0.47;;
29906;SDS011;16776;50.958;10.994;2022-11-23T03:15:49;1.13;;;0.70;;
29906;SDS011;16776;50.958;10.994;2022-11-23T03:18:16;1.20;;;0.70;;
29906;SDS011;16776;50.958;10.994;2022-11-23T03:20:42;1.55;;;0.60;;
29906;SDS011;16776;50.958;10.994;2022-11-23T03:23:11;0.95;;;0.40;;
29906;SDS011;16776;50.958;10.994;2022-11-23T03:25:40;0.50;;;0.50;;
29906;SDS011;16776;50.958;10.994;2022-11-23T03:28:09;1.63;;;0.40;;
29906;SDS011;16776;50.958;10.994;2022-11-23T03:30:36;0.98;;;0.52;;
29906;SDS011;16776;50.958;10.994;2022-11-23T03:33:04;0.65;;;0.60;;
29906;SDS011;16776;50.958;10.994;2022-11-23T03:35:30;1.83;;;0.90;;
29906;SDS011;16776;50.958;10.994;2022-11-23T03:37:57;1.67;;;0.73;;
29906;SDS011;16776;50.958;10.994;2022-11-23T03:40:23;2.78;;;0.60;;
29906;SDS011;16776;50.958;10.994;2022-11-23T03:42:53;1.00;;;0.65;;
29906;SDS011;16776;50.958;10.994;2022-11-23T03:45:20;2.47;;;1.30;;
29906;SDS011;16776;50.958;10.994;2022-11-23T03:47:47;1.92;;;0.63;;
29906;SDS011;16776;50.958;10.994;2022-11-23T03:50:15;0.82;;;0.60;;
29906;SDS011;16776;50.958;10.994;2022-11-23T03:52:41;0.75;;;0.50;;
29906;SDS011;16776;50.958;10.994;2022-11-23T03:55:08;1.58;;;0.50;;
29906;SDS011;16776;50.958;10.994;2022-11-23T03:57:34;0.80;;;0.80;;
29906;SDS011;16776;50.958;10.994;2022-11-23T04:00:02;1.30;;;0.50;;
29906;SDS011;16776;50.958;10.994;2022-11-23T04:02:34;1.25;;;0.55;;
29906;SDS011;16776;50.958;10.994;2022-11-23T04:05:00;0.68;;;0.50;;
29906;SDS011;16776;50.958;10.994;2022-11-23T04:07:28;0.50;;;0.40;;
29906;SDS011;16776;50.958;10.994;2022-11-23T04:09:55;0.75;;;0.40;;
29906;SDS011;16776;50.958;10.994;2022-11-23T04:12:21;0.75;;;0.38;;
29906;SDS011;16776;50.958;10.994;2022-11-23T04:14:51;0.70;;;0.47;;
29906;SDS011;16776;50.958;10.994;2022-11-23T04:17:17;0.20;;;0.20;;
29906;SDS011;16776;50.958;10.994;2022-11-23T04:19:44;0.82;;;0.82;;
29906;SDS011;16776;50.958;10.994;2022-11-23T04:22:11;1.20;;;0.35;;
29906;SDS011;16776;50.958;10.994;2022-11-23T04:24:38;1.90;;;0.35;;
29906;SDS011;16776;50.958;10.994;2022-11-23T04:27:05;1.27;;;0.50;;
29906;SDS011;16776;50.958;10.994;2022-11-23T04:29:31;1.10;;;0.40;;
29906;SDS011;16776;50.958;10.994;2022-11-23T04:31:58;0.88;;;0.40;;
29906;SDS011;16776;50.958;10.994;2022-11-23T04:34:27;0.63;;;0.60;;
29906;SDS011;16776;50.958;10.994;2022-11-23T04:36:54;1.17;;;0.57;;
29906;SDS011;16776;50.958;10.994;2022-11-23T04:39:20;1.55;;;0.47;;
29906;SDS011;16776;50.958;10.994;2022-11-23T04:41:49;0.52;;;0.40;;
29906;SDS011;16776;50.958;10.994;2022-11-23T04:44:18;1.67;;;0.50;;
29906;SDS011;16776;50.958;10.994;2022-11-23T04:46:45;1.17;;;0.40;;
29906;SDS011;16776;50.958;10.994;2022-11-23T04:49:12;1.35;;;0.60;;
29906;SDS011;16776;50.958;10.994;2022-11-23T04:51:38;0.98;;;0.40;;
29906;SDS011;16776;50.958;10.994;2022-11-23T04:54:05;1.42;;;0.50;;
29906;SDS011;16776;50.958;10.994;2022-11-23T04:56:31;1.90;;;0.90;;
29906;SDS011;16776;50.958;10.994;2022-11-23T04:59:02;0.68;;;0.35;;
29906;SDS011;16776;50.958;10.994;2022-11-23T05:01:28;1.38;;;0.65;;
29906;SDS011;16776;50.958;10.994;2022-11-23T05:03:55;1.88;;;0.50;;
29906;SDS011;16776;50.958;10.994;2022-11-23T05:06:22;1.50;;;0.50;;
29906;SDS011;16776;50.958;10.994;2022-11-23T05:08:51;3.90;;;0.90;;
29906;SDS011;16776;50.958;10.994;2022-11-23T05:11:18;2.40;;;0.82;;
29906;SDS011;16776;50.958;10.994;2022-11-23T05:13:45;3.22;;;0.70;;
29906;SDS011;16776;50.958;10.994;2022-11-23T05:16:13;1.85;;;1.10;;
29906;SDS011;16776;50.958;10.994;2022-11-23T05:18:39;3.50;;;0.63;;
29906;SDS011;16776;50.958;10.994;2022-11-23T05:21:06;4.35;;;1.13;;
29906;SDS011;16776;50.958;10.994;2022-11-23T05:23:32;4.28;;;0.90;;
29906;SDS011;16776;50.958;10.994;2022-11-23T05:26:00;2.22;;;0.68;;
29906;SDS011;16776;50.958;10.994;2022-11-23T05:28:27;0.55;;;0.47;;
29906;SDS011;16776;50.958;10.994;2022-11-23T05:30:54;0.68;;;0.50;;
29906;SDS011;16776;50.958;10.994;2022-11-23T05:33:21;0.73;;;0.60;;
29906;SDS011;16776;50.958;10.994;2022-11-23T05:35:48;2.05;;;0.90;;
29906;SDS011;16776;50.958;10.994;2022-11-23T05:38:15;3.28;;;1.08;;
29906;SDS011;16776;50.958;10.994;2022-11-23T05:40:43;1.83;;;0.90;;
29906;SDS011;16776;50.958;10.994;2022-11-23T05:43:12;2.20;;;1.00;;
29906;SDS011;16776;50.958;10.994;2022-11-23T05:45:38;3.40;;;0.90;;
29906;SDS011;16776;50.958;10.994;2022-11-23T05:48:05;1.88;;;1.00;;
29906;SDS011;16776;50.958;10.994;2022-11-23T05:50:33;1.88;;;0.80;;
29906;SDS011;16776;50.958;10.994;2022-11-23T05:52:59;0.60;;;0.60;;
29906;SDS011;16776;50.958;10.994;2022-11-23T05:55:26;1.13;;;0.80;;
29906;SDS011;16776;50.958;10.994;2022-11-23T05:57:53;3.55;;;0.82;;
29906;SDS011;16776;50.958;10.994;2022-11-23T06:00:19;1.10;;;0.55;;
29906;SDS011;16776;50.958;10.994;2022-11-23T06:02:46;1.27;;;0.88;;
29906;SDS011;16776;50.958;10.994;2022-11-23T06:05:16;1.95;;;0.77;;
29906;SDS011;16776;50.958;10.994;2022-11-23T06:07:44;2.88;;;1.10;;
29906;SDS011;16776;50.958;10.994;2022-11-23T06:10:10;1.35;;;0.82;;
29906;SDS011;16776;50.958;10.994;2022-11-23T06:12:37;1.27;;;0.57;;
29906;SDS011;16776;50.958;10.994;2022-11-23T06:15:04;0.47;;;0.47;;
29906;SDS011;16776;50.958;10.994;2022-11-23T06:17:32;2.55;;;0.70;;
29906;SDS011;16776;50.958;10.994;2022-11-23T06:19:59;1.00;;;0.70;;
29906;SDS011;16776;50.958;10.994;2022-11-23T06:22:25;1.55;;;0.70;;
29906;SDS011;16776;50.958;10.994;2022-11-23T06:24:53;2.63;;;1.15;;
29906;SDS011;16776;50.958;10.994;2022-11-23T06:27:20;4.03;;;1.17;;
29906;SDS011;16776;50.958;10.994;2022-11-23T06:29:47;0.70;;;0.68;;
29906;SDS011;16776;50.958;10.994;2022-11-23T06:32:13;3.20;;;0.80;;
29906;SDS011;16776;50.958;10.994;2022-11-23T06:34:40;1.77;;;0.90;;
29906;SDS011;16776;50.958;10.994;2022-11-23T06:37:07;1.00;;;0.90;;
29906;SDS011;16776;50.958;10.994;2022-11-23T06:39:34;3.45;;;0.80;;
29906;SDS011;16776;50.958;10.994;2022-11-23T06:42:02;3.13;;;0.95;;
29906;SDS011;16776;50.958;10.994;2022-11-23T06:44:30;2.22;;;1.10;;
29906;SDS011;16776;50.958;10.994;2022-11-23T06:46:57;1.63;;;0.73;;
29906;SDS011;16776;50.958;10.994;2022-11-23T06:49:24;2.33;;;0.68;;
29906;SDS011;16776;50.958;10.994;2022-11-23T06:51:52;1.05;;;0.85;;
29906;SDS011;16776;50.958;10.994;2022-11-23T06:54:19;2.92;;;0.70;;
29906;SDS011;16776;50.958;10.994;2022-11-23T06:56:45;2.53;;;0.90;;
29906;SDS011;16776;50.958;10.994;2022-11-23T06:59:13;0.65;;;0.60;;
29906;SDS011;16776;50.958;10.994;2022-11-23T07:01:40;1.65;;;0.70;;
29906;SDS011;16776;50.958;10.994;2022-11-23T07:04:07;0.95;;;0.65;;
29906;SDS011;16776;50.958;10.994;2022-11-23T07:06:33;0.73;;;0.70;;
29906;SDS011;16776;50.958;10.994;2022-11-23T07:09:02;1.00;;;0.70;;
29906;SDS011;16776;50.958;10.994;2022-11-23T07:11:28;1.05;;;0.73;;
29906;SDS011;16776;50.958;10.994;2022-11-23T07:13:55;0.90;;;0.70;;
29906;SDS011;16776;50.958;10.994;2022-11-23T07:16:23;1.67;;;0.70;;
29906;SDS011;16776;50.958;10.994;2022-11-23T07:18:49;3.80;;;0.80;;
29906;SDS011;16776;50.958;10.994;2022-11-23T07:21:16;1.52;;;0.60;;
29906;SDS011;16776;50.958;10.994;2022-11-23T07:23:43;1.58;;;0.65;;
29906;SDS011;16776;50.958;10.994;2022-11-23T07:26:09;1.15;;;0.82;;
29906;SDS011;16776;50.958;10.994;2022-11-23T07:28:36;1.27;;;0.68;;
29906;SDS011;16776;50.958;10.994;2022-11-23T07:31:02;0.68;;;0.60;;
29906;SDS011;16776;50.958;10.994;2022-11-23T07:33:30;0.65;;;0.63;;
29906;SDS011;16776;50.958;10.994;2022-11-23T07:35:59;2.40;;;1.70;;
29906;SDS011;16776;50.958;10.994;2022-11-23T07:38:26;9.60;;;4.65;;
29906;SDS011;16776;50.958;10.994;2022-11-23T07:40:53;10.75;;;6.00;;
29906;SDS011;16776;50.958;10.994;2022-11-23T07:43:19;20.23;;;9.40;;
29906;SDS011;16776;50.958;10.994;2022-11-23T07:45:49;12.50;;;6.00;;
29906;SDS011;16776;50.958;10.994;2022-11-23T07:48:15;18.17;;;8.40;;
29906;SDS011;16776;50.958;10.994;2022-11-23T07:50:45;52.72;;;25.30;;
29906;SDS011;16776;50.958;10.994;2022-11-23T07:53:12;24.30;;;11.50;;
29906;SDS011;16776;50.958;10.994;2022-11-23T07:55:38;12.45;;;5.85;;
29906;SDS011;16776;50.958;10.994;2022-11-23T07:58:09;9.60;;;3.80;;
29906;SDS011;16776;50.958;10.994;2022-11-23T08:00:36;4.72;;;2.95;;
29906;SDS011;16776;50.958;10.994;2022-11-23T08:03:03;4.25;;;2.30;;
29906;SDS011;16776;50.958;10.994;2022-11-23T08:05:30;3.53;;;1.83;;
29906;SDS011;16776;50.958;10.994;2022-11-23T08:08:01;2.28;;;1.17;;
29906;SDS011;16776;50.958;10.994;2022-11-23T08:10:33;3.17;;;1.45;;
29906;SDS011;16776;50.958;10.994;2022-11-23T08:13:00;3.70;;;1.40;;
29906;SDS011;16776;50.958;10.994;2022-11-23T08:15:29;1.67;;;1.02;;
29906;SDS011;16776;50.958;10.994;2022-11-23T08:17:56;2.05;;;0.70;;
29906;SDS011;16776;50.958;10.994;2022-11-23T08:20:24;1.02;;;0.70;;
29906;SDS011;16776;50.958;10.994;2022-11-23T08:22:51;0.60;;;0.50;;
29906;SDS011;16776;50.958;10.994;2022-11-23T08:25:25;0.80;;;0.80;;
29906;SDS011;16776;50.958;10.994;2022-11-23T08:27:57;0.95;;;0.60;;
29906;SDS011;16776;50.958;10.994;2022-11-23T08:30:25;2.20;;;0.70;;
29906;SDS011;16776;50.958;10.994;2022-11-23T08:32:56;1.02;;;0.82;;
29906;SDS011;16776;50.958;10.994;2022-11-23T08:35:22;1.98;;;0.82;;
29906;SDS011;16776;50.958;10.994;2022-11-23T08:37:51;1.42;;;0.70;;
29906;SDS011;16776;50.958;10.994;2022-11-23T08:40:20;0.85;;;0.55;;
29906;SDS011;16776;50.958;10.994;2022-11-23T08:42:48;1.40;;;0.77;;
29906;SDS011;16776;50.958;10.994;2022-11-23T08:45:14;1.02;;;0.63;;
29906;SDS011;16776;50.958;10.994;2022-11-23T08:47:42;0.75;;;0.65;;
29906;SDS011;16776;50.958;10.994;2022-11-23T08:50:08;1.67;;;0.47;;
29906;SDS011;16776;50.958;10.994;2022-11-23T08:52:35;1.50;;;0.40;;
29906;SDS011;16776;50.958;10.994;2022-11-23T08:55:02;2.03;;;0.57;;
29906;SDS011;16776;50.958;10.994;2022-11-23T08:57:28;0.70;;;0.40;;
29906;SDS011;16776;50.958;10.994;2022-11-23T08:59:57;3.00;;;0.90;;
29906;SDS011;16776;50.958;10.994;2022-11-23T09:02:23;3.90;;;1.08;;
29906;SDS011;16776;50.958;10.994;2022-11-23T09:04:50;2.90;;;1.05;;
29906;SDS011;16776;50.958;10.994;2022-11-23T09:07:18;4.30;;;1.00;;
29906;SDS011;16776;50.958;10.994;2022-11-23T09:09:45;1.95;;;0.80;;
29906;SDS011;16776;50.958;10.994;2022-11-23T09:12:11;1.30;;;0.63;;
29906;SDS011;16776;50.958;10.994;2022-11-23T09:14:38;1.00;;;0.43;;
29906;SDS011;16776;50.958;10.994;2022-11-23T09:17:08;2.15;;;0.70;;
29906;SDS011;16776;50.958;10.994;2022-11-23T09:19:37;1.55;;;0.75;;
29906;SDS011;16776;50.958;10.994;2022-11-23T09:22:04;1.35;;;0.60;;
29906;SDS011;16776;50.958;10.994;2022-11-23T09:24:30;1.10;;;0.57;;
29906;SDS011;16776;50.958;10.994;2022-11-23T09:26:57;1.48;;;0.60;;
29906;SDS011;16776;50.958;10.994;2022-11-23T09:29:24;2.38;;;0.95;;
29906;SDS011;16776;50.958;10.994;2022-11-23T09:31:51;1.35;;;0.70;;
29906;SDS011;16776;50.958;10.994;2022-11-23T09:34:19;0.80;;;0.60;;
29906;SDS011;16776;50.958;10.994;2022-11-23T09:36:47;3.28;;;0.90;;
29906;SDS011;16776;50.958;10.994;2022-11-23T09:39:13;0.80;;;0.50;;
29906;SDS011;16776;50.958;10.994;2022-11-23T09:41:50;2.95;;;0.88;;
29906;SDS011;16776;50.958;10.994;2022-11-23T09:44:31;1.65;;;0.60;;
29906;SDS011;16776;50.958;10.994;2022-11-23T09:47:21;2.28;;;0.70;;
29906;SDS011;16776;50.958;10.994;2022-11-23T09:49:59;2.70;;;1.02;;
29906;SDS011;16776;50.958;10.994;2022-11-23T09:52:36;3.97;;;0.90;;
29906;SDS011;16776;50.958;10.994;2022-11-23T09:55:09;2.45;;;0.77;;
29906;SDS011;16776;50.958;10.994;2022-11-23T09:57:42;2.58;;;1.10;;
29906;SDS011;16776;50.958;10.994;2022-11-23T10:00:15;2.90;;;1.05;;
29906;SDS011;16776;50.958;10.994;2022-11-23T10:02:44;3.70;;;0.80;;
29906;SDS011;16776;50.958;10.994;2022-11-23T10:05:19;2.15;;;0.85;;
29906;SDS011;16776;50.958;10.994;2022-11-23T10:07:56;2.58;;;1.40;;
29906;SDS011;16776;50.958;10.994;2022-11-23T10:10:33;1.38;;;0.63;;
29906;SDS011;16776;50.958;10.994;2022-11-23T10:13:11;1.77;;;0.95;;
29906;SDS011;16776;50.958;10.994;2022-11-23T10:15:52;3.83;;;1.10;;
29906;SDS011;16776;50.958;10.994;2022-11-23T10:18:29;3.47;;;0.77;;
29906;SDS011;16776;50.958;10.994;2022-11-23T10:21:07;1.73;;;0.70;;
29906;SDS011;16776;50.958;10.994;2022-11-23T10:23:45;1.35;;;0.50;;
29906;SDS011;16776;50.958;10.994;2022-11-23T10:26:19;2.92;;;1.10;;
29906;SDS011;16776;50.958;10.994;2022-11-23T10:28:49;2.55;;;0.85;;
29906;SDS011;16776;50.958;10.994;2022-11-23T10:31:17;1.35;;;0.65;;
29906;SDS011;16776;50.958;10.994;2022-11-23T10:33:53;2.60;;;1.08;;
29906;SDS011;16776;50.958;10.994;2022-11-23T10:36:27;1.35;;;0.68;;
29906;SDS011;16776;50.958;10.994;2022-11-23T10:38:55;3.92;;;0.90;;
29906;SDS011;16776;50.958;10.994;2022-11-23T10:41:23;5.97;;;1.48;;
29906;SDS011;16776;50.958;10.994;2022-11-23T10:43:51;2.65;;;1.05;;
29906;SDS011;16776;50.958;10.994;2022-11-23T10:46:28;3.40;;;1.40;;
29906;SDS011;16776;50.958;10.994;2022-11-23T10:49:07;3.13;;;1.20;;
29906;SDS011;16776;50.958;10.994;2022-11-23T10:51:50;1.25;;;0.95;;
29906;SDS011;16776;50.958;10.994;2022-11-23T10:54:19;2.45;;;0.80;;
29906;SDS011;16776;50.958;10.994;2022-11-23T10:56:49;2.35;;;0.82;;
29906;SDS011;16776;50.958;10.994;2022-11-23T10:59:27;2.00;;;1.00;;
29906;SDS011;16776;50.958;10.994;2022-11-23T11:01:59;3.17;;;1.17;;
29906;SDS011;16776;50.958;10.994;2022-11-23T11:04:34;1.45;;;0.68;;
29906;SDS011;16776;50.958;10.994;2022-11-23T11:07:17;0.65;;;0.60;;
29906;SDS011;16776;50.958;10.994;2022-11-23T11:09:48;2.95;;;0.98;;
29906;SDS011;16776;50.958;10.994;2022-11-23T11:12:16;2.67;;;1.33;;
29906;SDS011;16776;50.958;10.994;2022-11-23T11:14:53;4.18;;;0.90;;
29906;SDS011;16776;50.958;10.994;2022-11-23T11:17:27;1.65;;;0.95;;
29906;SDS011;16776;50.958;10.994;2022-11-23T11:19:57;2.22;;;0.90;;
29906;SDS011;16776;50.958;10.994;2022-11-23T11:22:28;3.90;;;1.17;;
29906;SDS011;16776;50.958;10.994;2022-11-23T11:25:04;2.40;;;1.33;;
29906;SDS011;16776;50.958;10.994;2022-11-23T11:27:32;4.70;;;1.50;;
29906;SDS011;16776;50.958;10.994;2022-11-23T11:30:02;2.35;;;0.68;;
29906;SDS011;16776;50.958;10.994;2022-11-23T11:32:47;3.63;;;1.10;;
29906;SDS011;16776;50.958;10.994;2022-11-23T11:35:24;2.88;;;0.90;;
29906;SDS011;16776;50.958;10.994;2022-11-23T11:37:56;1.30;;;0.80;;
29906;SDS011;16776;50.958;10.994;2022-11-23T11:40:27;3.03;;;0.90;;
29906;SDS011;16776;50.958;10.994;2022-11-23T11:43:00;3.03;;;1.00;;
29906;SDS011;16776;50.958;10.994;2022-11-23T11:45:35;3.75;;;1.02;;
29906;SDS011;16776;50.958;10.994;2022-11-23T11:48:06;1.10;;;0.60;;
29906;SDS011;16776;50.958;10.994;2022-11-23T11:50:38;2.25;;;0.82;;
29906;SDS011;16776;50.958;10.994;2022-11-23T11:53:16;1.23;;;0.57;;
29906;SDS011;16776;50.958;10.994;2022-11-23T11:55:49;1.05;;;0.95;;
29906;SDS011;16776;50.958;10.994;2022-11-23T11:58:20;2.08;;;1.08;;
29906;SDS011;16776;50.958;10.994;2022-11-23T12:00:49;2.65;;;1.08;;
29906;SDS011;16776;50.958;10.994;2022-11-23T12:03:23;3.13;;;0.97;;
29906;SDS011;16776;50.958;10.994;2022-11-23T12:06:01;2.42;;;1.00;;
29906;SDS011;16776;50.958;10.994;2022-11-23T12:08:34;3.63;;;0.90;;
29906;SDS011;16776;50.958;10.994;2022-11-23T12:11:11;3.10;;;0.63;;
29906;SDS011;16776;50.958;10.994;2022-11-23T12:13:39;1.73;;;0.80;;
29906;SDS011;16776;50.958;10.994;2022-11-23T12:16:09;3.53;;;0.90;;
29906;SDS011;16776;50.958;10.994;2022-11-23T12:18:53;2.30;;;1.00;;
29906;SDS011;16776;50.958;10.994;2022-11-23T12:21:32;3.40;;;0.77;;
29906;SDS011;16776;50.958;10.994;2022-11-23T12:24:17;1.90;;;1.08;;
29906;SDS011;16776;50.958;10.994;2022-11-23T12:26:50;2.38;;;0.70;;
29906;SDS011;16776;50.958;10.994;2022-11-23T12:29:39;3.15;;;1.02;;
29906;SDS011;16776;50.958;10.994;2022-11-23T12:32:15;1.73;;;0.65;;
29906;SDS011;16776;50.958;10.994;2022-11-23T12:37:51;2.65;;;0.93;;
29906;SDS011;16776;50.958;10.994;2022-11-23T12:40:33;1.35;;;0.88;;
29906;SDS011;16776;50.958;10.994;2022-11-23T12:43:19;2.65;;;0.90;;
29906;SDS011;16776;50.958;10.994;2022-11-23T12:45:51;2.25;;;0.95;;
29906;SDS011;16776;50.958;10.994;2022-11-23T12:48:33;1.35;;;0.68;;
29906;SDS011;16776;50.958;10.994;2022-11-23T12:51:10;1.42;;;0.70;;
29906;SDS011;16776;50.958;10.994;2022-11-23T12:53:48;1.58;;;0.80;;
29906;SDS011;16776;50.958;10.994;2022-11-23T12:56:30;1.75;;;0.88;;
29906;SDS011;16776;50.958;10.994;2022-11-23T12:59:13;1.10;;;0.50;;
29906;SDS011;16776;50.958;10.994;2022-11-23T13:01:41;1.23;;;0.47;;
29906;SDS011;16776;50.958;10.994;2022-11-23T13:04:22;1.15;;;0.60;;
29906;SDS011;16776;50.958;10.994;2022-11-23T13:10:15;2.33;;;1.10;;
29906;SDS011;16776;50.958;10.994;2022-11-23T13:13:06;1.55;;;0.90;;
29906;SDS011;16776;50.958;10.994;2022-11-23T13:16:05;5.47;;;1.40;;
29906;SDS011;16776;50.958;10.994;2022-11-23T13:18:46;3.33;;;1.00;;
29906;SDS011;16776;50.958;10.994;2022-11-23T13:21:26;0.50;;;0.50;;
29906;SDS011;16776;50.958;10.994;2022-11-23T13:23:58;2.97;;;0.60;;
29906;SDS011;16776;50.958;10.994;2022-11-23T13:26:26;2.38;;;1.35;;
29906;SDS011;16776;50.958;10.994;2022-11-23T13:28:55;1.95;;;0.75;;
29906;SDS011;16776;50.958;10.994;2022-11-23T13:31:23;1.60;;;0.77;;
29906;SDS011;16776;50.958;10.994;2022-11-23T13:33:52;2.72;;;1.30;;
29906;SDS011;16776;50.958;10.994;2022-11-23T13:42:20;2.60;;;0.95;;
29906;SDS011;16776;50.958;10.994;2022-11-23T13:44:48;2.63;;;1.15;;
29906;SDS011;16776;50.958;10.994;2022-11-23T13:48:04;1.58;;;0.80;;
29906;SDS011;16776;50.958;10.994;2022-11-23T13:50:39;1.10;;;0.57;;
29906;SDS011;16776;50.958;10.994;2022-11-23T13:53:22;5.10;;;1.00;;
29906;SDS011;16776;50.958;10.994;2022-11-23T13:55:55;4.38;;;1.08;;
29906;SDS011;16776;50.958;10.994;2022-11-23T13:58:36;2.38;;;0.80;;
29906;SDS011;16776;50.958;10.994;2022-11-23T14:01:05;2.17;;;0.80;;
29906;SDS011;16776;50.958;10.994;2022-11-23T14:03:52;0.65;;;0.40;;
29906;SDS011;16776;50.958;10.994;2022-11-23T14:06:37;1.42;;;0.80;;
29906;SDS011;16776;50.958;10.994;2022-11-23T14:09:12;1.80;;;0.60;;
29906;SDS011;16776;50.958;10.994;2022-11-23T14:11:51;1.55;;;0.73;;
29906;SDS011;16776;50.958;10.994;2022-11-23T14:14:27;1.98;;;0.57;;
29906;SDS011;16776;50.958;10.994;2022-11-23T14:20:22;3.63;;;0.80;;
29906;SDS011;16776;50.958;10.994;2022-11-23T14:22:58;4.20;;;1.05;;
29906;SDS011;16776;50.958;10.994;2022-11-23T14:25:44;1.45;;;0.80;;
29906;SDS011;16776;50.958;10.994;2022-11-23T14:28:22;2.85;;;0.80;;
29906;SDS011;16776;50.958;10.994;2022-11-23T14:31:02;3.10;;;0.88;;
29906;SDS011;16776;50.958;10.994;2022-11-23T14:33:43;1.17;;;0.73;;
29906;SDS011;16776;50.958;10.994;2022-11-23T14:36:21;1.33;;;0.52;;
29906;SDS011;16776;50.958;10.994;2022-11-23T14:42:03;2.83;;;1.35;;
29906;SDS011;16776;50.958;10.994;2022-11-23T14:44:39;2.17;;;0.95;;
29906;SDS011;16776;50.958;10.994;2022-11-23T14:47:08;2.97;;;1.15;;
29906;SDS011;16776;50.958;10.994;2022-11-23T14:49:36;2.45;;;1.38;;
29906;SDS011;16776;50.958;10.994;2022-11-23T14:52:15;4.65;;;1.50;;
29906;SDS011;16776;50.958;10.994;2022-11-23T14:54:45;5.37;;;2.07;;
29906;SDS011;16776;50.958;10.994;2022-11-23T14:57:13;2.53;;;1.52;;
29906;SDS011;16776;50.958;10.994;2022-11-23T14:59:41;1.95;;;0.93;;
29906;SDS011;16776;50.958;10.994;2022-11-23T15:02:15;3.70;;;1.40;;
29906;SDS011;16776;50.958;10.994;2022-11-23T15:04:51;2.17;;;1.20;;
29906;SDS011;16776;50.958;10.994;2022-11-23T15:07:32;2.78;;;0.90;;
29906;SDS011;16776;50.958;10.994;2022-11-23T15:10:16;1.88;;;0.90;;
29906;SDS011;16776;50.958;10.994;2022-11-23T15:12:50;3.45;;;1.20;;
29906;SDS011;16776;50.958;10.994;2022-11-23T15:15:17;2.05;;;1.00;;